Cotipora, Brazil
Current Conditions -  °F | °C
As of 4:00 PM on Monday 24 Nov 2014 (Local Time) from SBCO Reporting Station
Clear Clear  
Wind Chill: 93°   Ceiling: Unl
Heat Index: 95°   Visibility: 6mi
Dew Point: 64°   Wind: 8mph
Humidity: 38%   Direction: 360°N
Pressure: 29.8"   Gusts: NA
Location:  28.99°S, 51.7°W
Report Text: SBCO 241800Z 36007KT CAVOK 34/18 Q1009
Loading
Personal Weather Stations






























Interactive Weather Map New forecast layout! Learn more

10-Day Weather Forecast

Advertisements
Track Severe Weather on mobile